createdAt,value
2019-03-22T00:00:57.812Z,5.23
2019-03-22T00:03:25.677Z,5.30
2019-03-22T00:05:53.549Z,5.27
2019-03-22T00:08:21.501Z,5.13
2019-03-22T00:10:49.339Z,4.43
2019-03-22T00:13:17.222Z,4.23
2019-03-22T00:15:45.144Z,4.37
2019-03-22T00:18:13.002Z,4.70
2019-03-22T00:20:40.899Z,4.60
2019-03-22T00:23:08.799Z,4.60
2019-03-22T00:25:36.867Z,4.40
2019-03-22T00:28:04.702Z,4.67
2019-03-22T00:30:32.602Z,5.40
2019-03-22T00:33:00.485Z,5.33
2019-03-22T00:35:28.320Z,5.57
2019-03-22T00:37:56.185Z,4.53
2019-03-22T00:40:24.036Z,4.80
2019-03-22T00:42:51.922Z,4.97
2019-03-22T00:45:19.766Z,5.20
2019-03-22T00:47:47.565Z,5.03
2019-03-22T00:50:15.583Z,5.63
2019-03-22T00:52:43.435Z,5.50
2019-03-22T00:55:11.379Z,5.00
2019-03-22T00:57:39.261Z,4.97
2019-03-22T01:00:08.584Z,5.23
2019-03-22T01:02:36.455Z,4.57
2019-03-22T01:05:06.219Z,5.03
2019-03-22T01:07:34.081Z,5.20
2019-03-22T01:10:01.921Z,5.07
2019-03-22T01:12:29.819Z,5.63
2019-03-22T01:14:57.639Z,5.23
2019-03-22T01:17:25.482Z,4.90
2019-03-22T01:19:53.348Z,5.10
2019-03-22T01:22:21.242Z,4.87
2019-03-22T01:24:49.067Z,4.43
2019-03-22T01:27:16.939Z,4.00
2019-03-22T01:29:44.765Z,3.80
2019-03-22T01:32:12.640Z,4.10
2019-03-22T01:34:40.481Z,4.00
2019-03-22T01:37:08.341Z,3.70
2019-03-22T01:39:36.239Z,3.50
2019-03-22T01:42:04.245Z,3.53
2019-03-22T01:44:32.111Z,4.67
2019-03-22T01:46:59.981Z,4.30
2019-03-22T01:49:27.879Z,4.20
2019-03-22T01:51:56.211Z,5.47
2019-03-22T01:54:24.128Z,5.13
2019-03-22T01:56:52.814Z,4.93
2019-03-22T01:59:20.722Z,5.27
2019-03-22T02:01:48.565Z,5.03
2019-03-22T02:04:16.433Z,5.47
2019-03-22T02:06:44.387Z,5.27
2019-03-22T02:09:12.233Z,5.13
2019-03-22T02:11:40.099Z,5.10
2019-03-22T02:14:07.984Z,4.87
2019-03-22T02:16:35.979Z,5.60
2019-03-22T02:19:04.028Z,5.13
2019-03-22T02:21:31.859Z,5.13
2019-03-22T02:23:59.739Z,5.10
2019-03-22T02:26:27.599Z,4.57
2019-03-22T02:28:55.503Z,4.97
2019-03-22T02:31:23.339Z,5.20
2019-03-22T02:33:51.176Z,4.90
2019-03-22T02:36:19.258Z,4.93
2019-03-22T02:38:47.126Z,5.60
2019-03-22T02:41:14.994Z,4.67
2019-03-22T02:43:42.913Z,5.33
2019-03-22T02:46:10.780Z,4.77
2019-03-22T02:48:38.659Z,4.93
2019-03-22T02:51:06.584Z,5.57
2019-03-22T02:53:34.446Z,5.23
2019-03-22T02:56:02.504Z,5.53
2019-03-22T02:58:30.584Z,5.10
2019-03-22T03:00:58.760Z,5.50
2019-03-22T03:03:26.981Z,5.07
2019-03-22T03:05:54.826Z,5.37
2019-03-22T03:08:22.680Z,5.70
2019-03-22T03:10:50.551Z,5.10
2019-03-22T03:13:18.469Z,5.57
2019-03-22T03:15:46.303Z,5.27
2019-03-22T03:18:14.168Z,4.97
2019-03-22T03:20:42.063Z,5.70
2019-03-22T03:23:09.907Z,5.83
2019-03-22T03:25:37.763Z,5.77
2019-03-22T03:28:05.647Z,5.90
2019-03-22T03:30:33.458Z,5.33
2019-03-22T03:33:01.948Z,6.00
2019-03-22T03:35:29.753Z,5.63
2019-03-22T03:37:57.610Z,5.60
2019-03-22T03:40:25.502Z,5.40
2019-03-22T03:42:53.451Z,5.40
2019-03-22T03:45:34.742Z,5.93
2019-03-22T03:48:02.989Z,5.47
2019-03-22T03:50:30.842Z,5.27
2019-03-22T03:52:58.774Z,4.80
2019-03-22T03:55:26.722Z,5.17
2019-03-22T03:57:54.544Z,5.20
2019-03-22T04:00:22.418Z,4.90
2019-03-22T04:02:50.279Z,5.53
2019-03-22T04:05:18.150Z,5.33
2019-03-22T04:07:46.143Z,5.23
2019-03-22T04:10:14.043Z,5.03
2019-03-22T04:12:41.959Z,4.80
2019-03-22T04:15:09.903Z,5.10
2019-03-22T04:17:37.761Z,5.07
2019-03-22T04:20:05.893Z,5.20
2019-03-22T04:22:36.336Z,5.40
2019-03-22T04:25:03.761Z,5.07
2019-03-22T04:27:31.689Z,5.23
2019-03-22T04:29:59.559Z,5.27
2019-03-22T04:32:27.411Z,5.20
2019-03-22T04:34:55.655Z,4.90
2019-03-22T04:37:23.532Z,4.73
2019-03-22T04:39:51.356Z,4.90
2019-03-22T04:42:19.335Z,5.33
2019-03-22T04:44:47.242Z,4.87
2019-03-22T04:47:17.322Z,5.00
2019-03-22T04:49:45.759Z,4.73
2019-03-22T04:52:14.256Z,4.97
2019-03-22T04:54:42.859Z,4.93
2019-03-22T04:57:11.979Z,4.90
2019-03-22T04:59:41.042Z,5.03
2019-03-22T05:02:09.542Z,4.83
2019-03-22T05:04:38.960Z,5.10
2019-03-22T05:07:07.374Z,5.07
2019-03-22T05:09:36.287Z,5.10
2019-03-22T05:12:04.380Z,5.13
2019-03-22T05:14:33.760Z,4.70
2019-03-22T05:17:01.770Z,4.67
2019-03-22T05:19:31.445Z,4.67
2019-03-22T05:22:00.252Z,4.40
2019-03-22T05:24:28.863Z,4.67
2019-03-22T05:26:58.022Z,4.90
2019-03-22T05:29:30.927Z,4.27
2019-03-22T05:32:12.001Z,4.47
2019-03-22T05:34:39.883Z,4.60
2019-03-22T05:37:07.743Z,4.43
2019-03-22T05:39:35.661Z,4.30
2019-03-22T05:42:03.747Z,5.40
2019-03-22T05:44:31.599Z,4.73
2019-03-22T05:46:59.527Z,5.40
2019-03-22T05:49:27.524Z,4.63
2019-03-22T05:51:55.408Z,4.40
2019-03-22T05:54:23.298Z,4.70
2019-03-22T05:56:51.243Z,4.27
2019-03-22T05:59:19.136Z,4.70
2019-03-22T06:01:47.050Z,4.40
2019-03-22T06:04:14.966Z,5.10
2019-03-22T06:06:42.796Z,4.60
2019-03-22T06:09:10.632Z,4.73
2019-03-22T06:11:38.561Z,4.40
2019-03-22T06:14:06.484Z,4.83
2019-03-22T06:16:34.332Z,5.13
2019-03-22T06:19:02.221Z,5.00
2019-03-22T06:21:30.162Z,5.10
2019-03-22T06:23:58.070Z,5.40
2019-03-22T06:26:26.247Z,4.90
2019-03-22T06:28:54.125Z,5.03
2019-03-22T06:31:22.054Z,5.00
2019-03-22T06:33:49.939Z,4.90
2019-03-22T06:36:17.802Z,4.67
2019-03-22T06:38:45.671Z,5.13
2019-03-22T06:41:13.607Z,5.07
2019-03-22T06:43:41.427Z,4.90
2019-03-22T06:46:09.302Z,4.70
2019-03-22T06:48:37.300Z,5.20
2019-03-22T06:51:05.240Z,4.90
2019-03-22T06:53:33.518Z,4.87
2019-03-22T06:56:01.364Z,5.00
2019-03-22T06:58:29.243Z,4.40
2019-03-22T07:00:57.102Z,3.70
2019-03-22T07:03:25.009Z,4.00
2019-03-22T07:05:52.885Z,4.30
2019-03-22T07:08:20.742Z,4.23
2019-03-22T07:10:48.602Z,4.13
2019-03-22T07:13:16.501Z,4.70
2019-03-22T07:15:44.362Z,5.17
2019-03-22T07:18:12.243Z,5.20
2019-03-22T07:20:40.140Z,4.70
2019-03-22T07:23:07.979Z,4.73
2019-03-22T07:25:35.880Z,4.40
2019-03-22T07:28:04.074Z,4.43
2019-03-22T07:30:31.967Z,4.53
2019-03-22T07:32:59.902Z,4.23
2019-03-22T07:35:27.849Z,3.83
2019-03-22T07:37:55.725Z,4.00
2019-03-22T07:40:23.782Z,4.53
2019-03-22T07:42:51.934Z,3.83
2019-03-22T07:45:20.112Z,3.90
2019-03-22T07:47:48.354Z,3.40
2019-03-22T07:50:16.673Z,3.87
2019-03-22T07:52:44.752Z,3.17
2019-03-22T07:55:12.920Z,3.60
2019-03-22T07:57:40.996Z,3.73
2019-03-22T08:00:09.950Z,3.10
2019-03-22T08:02:38.146Z,3.27
2019-03-22T08:05:06.439Z,3.60
2019-03-22T08:07:34.471Z,3.50
2019-03-22T08:10:03.966Z,3.77
2019-03-22T08:12:32.353Z,2.70
2019-03-22T08:15:00.561Z,2.50
2019-03-22T08:17:28.680Z,2.50
2019-03-22T08:19:57.328Z,2.20
2019-03-22T08:22:25.614Z,1.87
2019-03-22T08:24:53.656Z,2.50
2019-03-22T08:27:22.173Z,1.93
2019-03-22T08:29:50.038Z,1.80
2019-03-22T08:32:18.042Z,1.53
2019-03-22T08:34:47.788Z,1.90
2019-03-22T08:37:15.656Z,1.60
2019-03-22T08:39:43.580Z,1.60
2019-03-22T08:42:11.486Z,2.03
2019-03-22T08:44:39.407Z,1.63
2019-03-22T08:47:07.450Z,1.50
2019-03-22T08:49:35.519Z,1.60
2019-03-22T08:52:04.265Z,1.23
2019-03-22T08:54:32.188Z,1.50
2019-03-22T08:57:00.087Z,1.20
2019-03-22T08:59:28.327Z,1.40
2019-03-22T09:01:56.180Z,1.17
2019-03-22T09:04:24.148Z,1.20
2019-03-22T09:06:52.093Z,1.27
2019-03-22T09:09:19.989Z,1.30
2019-03-22T09:11:47.862Z,1.30
2019-03-22T09:14:15.819Z,1.27
2019-03-22T09:16:43.757Z,1.10
2019-03-22T09:19:11.677Z,1.33
2019-03-22T09:21:39.607Z,1.53
2019-03-22T09:24:07.633Z,1.10
2019-03-22T09:26:47.182Z,1.20
2019-03-22T09:29:05.398Z,1.60
2019-03-22T09:31:33.372Z,1.20
2019-03-22T09:34:01.231Z,0.90
2019-03-22T09:36:29.123Z,1.30
2019-03-22T09:38:57.045Z,1.23
2019-03-22T09:41:24.989Z,1.03
2019-03-22T09:43:52.932Z,1.10
2019-03-22T09:46:20.813Z,1.07
2019-03-22T09:48:48.758Z,1.07
2019-03-22T09:51:16.654Z,1.20
2019-03-22T09:53:44.523Z,1.10
2019-03-22T09:56:12.883Z,1.13
2019-03-22T09:58:40.821Z,1.30
2019-03-22T10:01:08.822Z,1.37
2019-03-22T10:03:36.758Z,1.50
2019-03-22T10:06:04.699Z,1.30
2019-03-22T10:08:32.549Z,1.60
2019-03-22T10:11:00.432Z,1.53
2019-03-22T10:13:28.302Z,1.30
2019-03-22T10:15:56.122Z,1.20
2019-03-22T10:18:24.026Z,1.60
2019-03-22T10:20:52.183Z,1.30
2019-03-22T10:23:22.440Z,1.30
2019-03-22T10:25:49.905Z,1.40
2019-03-22T10:28:17.939Z,1.30
2019-03-22T10:30:45.894Z,1.20
2019-03-22T10:33:22.453Z,1.50
2019-03-22T10:35:43.605Z,1.43
2019-03-22T10:38:16.199Z,1.40
2019-03-22T10:40:41.446Z,1.30
2019-03-22T10:43:09.410Z,1.30
2019-03-22T10:45:37.395Z,1.17
2019-03-22T10:48:05.316Z,1.60
2019-03-22T10:50:33.165Z,1.50
2019-03-22T10:53:01.031Z,1.43
2019-03-22T10:55:30.536Z,1.10
2019-03-22T10:57:58.840Z,1.07
2019-03-22T11:00:26.700Z,1.20
2019-03-22T11:02:54.599Z,1.13
2019-03-22T11:05:22.472Z,1.13
2019-03-22T11:07:50.399Z,1.00
2019-03-22T11:10:18.384Z,1.00
2019-03-22T11:12:46.327Z,1.07
2019-03-22T11:15:14.406Z,1.00
2019-03-22T11:17:42.646Z,1.10
2019-03-22T11:20:13.582Z,1.10
2019-03-22T11:22:41.502Z,1.00
2019-03-22T11:25:09.901Z,1.30
2019-03-22T11:27:37.940Z,1.10
2019-03-22T11:30:08.949Z,1.50
2019-03-22T11:32:36.989Z,1.50
2019-03-22T11:35:05.761Z,1.47
2019-03-22T11:37:33.625Z,1.43
2019-03-22T11:40:01.471Z,1.40
2019-03-22T11:42:29.382Z,1.30
2019-03-22T11:44:58.442Z,1.50
2019-03-22T11:47:26.401Z,1.50
2019-03-22T11:49:54.302Z,1.33
2019-03-22T11:52:22.205Z,1.60
2019-03-22T11:54:50.117Z,1.60
2019-03-22T11:57:19.207Z,1.57
2019-03-22T11:59:47.110Z,1.97
2019-03-22T12:02:22.180Z,2.00
2019-03-22T12:04:44.837Z,2.10
2019-03-22T12:07:12.722Z,2.40
2019-03-22T12:09:40.694Z,2.10
2019-03-22T12:12:08.627Z,2.00
2019-03-22T12:14:36.481Z,2.47
2019-03-22T12:17:04.492Z,2.23
2019-03-22T12:19:32.426Z,1.60
2019-03-22T12:22:00.322Z,1.70
2019-03-22T12:24:28.324Z,2.07
2019-03-22T12:26:56.285Z,1.47
2019-03-22T12:29:24.137Z,1.83
2019-03-22T12:31:52.083Z,1.80
2019-03-22T12:34:20.065Z,2.00
2019-03-22T12:36:47.933Z,2.03
2019-03-22T12:39:15.825Z,2.37
2019-03-22T12:41:43.723Z,1.83
2019-03-22T12:44:11.692Z,2.30
2019-03-22T12:46:39.622Z,1.93
2019-03-22T12:49:07.639Z,2.70
2019-03-22T12:51:35.586Z,3.07
2019-03-22T12:54:03.599Z,2.30
2019-03-22T12:56:31.493Z,1.80
2019-03-22T12:58:59.486Z,2.30
2019-03-22T13:01:27.486Z,2.50
2019-03-22T13:03:55.379Z,2.47
2019-03-22T13:06:23.311Z,2.20
2019-03-22T13:08:51.259Z,2.90
2019-03-22T13:11:19.600Z,2.80
2019-03-22T13:13:47.525Z,2.40
2019-03-22T13:16:15.453Z,2.97
2019-03-22T13:18:50.167Z,2.90
2019-03-22T13:21:13.307Z,2.67
2019-03-22T13:23:41.204Z,2.87
2019-03-22T13:26:09.222Z,3.70
2019-03-22T13:28:37.139Z,3.60
2019-03-22T13:31:05.016Z,2.87
2019-03-22T13:33:32.984Z,3.53
2019-03-22T13:36:00.979Z,3.13
2019-03-22T13:38:28.959Z,3.23
2019-03-22T13:40:56.899Z,3.33
2019-03-22T13:43:24.753Z,3.13
2019-03-22T13:45:52.780Z,3.40
2019-03-22T13:48:20.691Z,3.30
2019-03-22T13:50:48.632Z,3.10
2019-03-22T13:53:16.571Z,3.50
2019-03-22T13:55:44.442Z,3.13
2019-03-22T13:58:12.341Z,3.10
2019-03-22T14:00:40.234Z,3.00
2019-03-22T14:03:08.161Z,3.40
2019-03-22T14:05:36.122Z,3.50
2019-03-22T14:08:04.222Z,4.00
2019-03-22T14:10:35.479Z,4.30
2019-03-22T14:13:04.341Z,4.00
2019-03-22T14:15:32.356Z,4.80
2019-03-22T14:18:00.611Z,4.43
2019-03-22T14:20:29.061Z,4.50
2019-03-22T14:22:56.991Z,4.57
2019-03-22T14:25:24.867Z,4.77
2019-03-22T14:27:52.784Z,4.70
2019-03-22T14:30:20.722Z,5.40
2019-03-22T14:32:48.591Z,5.00
2019-03-22T14:35:16.539Z,4.60
2019-03-22T14:37:44.417Z,4.60
2019-03-22T14:40:15.561Z,4.90
2019-03-22T14:42:42.183Z,4.73
2019-03-22T14:45:10.322Z,5.43
2019-03-22T14:47:38.293Z,5.40
2019-03-22T14:50:06.473Z,5.10
2019-03-22T14:52:34.506Z,5.40
2019-03-22T14:55:02.522Z,5.70
2019-03-22T14:57:30.526Z,5.57
2019-03-22T14:59:59.300Z,6.07
2019-03-22T15:02:27.492Z,6.47
2019-03-22T15:04:55.359Z,5.90
2019-03-22T15:07:23.269Z,6.23
2019-03-22T15:09:51.145Z,6.50
2019-03-22T15:12:19.048Z,6.10
2019-03-22T15:15:02.938Z,6.77
2019-03-22T15:18:05.315Z,6.70
2019-03-22T15:20:55.838Z,6.13
2019-03-22T15:23:46.436Z,6.53
2019-03-22T15:26:37.554Z,6.37
2019-03-22T15:32:09.353Z,6.90
2019-03-22T15:35:15.321Z,5.97
2019-03-22T15:38:09.017Z,6.30
2019-03-22T15:40:36.982Z,7.23
2019-03-22T15:43:04.944Z,6.90
2019-03-22T15:45:32.894Z,7.60
2019-03-22T15:48:00.762Z,7.23
2019-03-22T15:50:28.704Z,7.10
2019-03-22T15:52:56.623Z,7.90
2019-03-22T15:55:24.619Z,9.07
2019-03-22T15:57:52.479Z,8.97
2019-03-22T16:00:21.387Z,9.07
2019-03-22T16:02:49.442Z,8.90
2019-03-22T16:05:17.379Z,9.30
2019-03-22T16:07:45.336Z,8.60
2019-03-22T16:10:13.323Z,8.40
2019-03-22T16:12:41.205Z,8.90
2019-03-22T16:15:09.760Z,8.90
2019-03-22T16:17:37.674Z,9.20
2019-03-22T16:20:06.364Z,9.10
2019-03-22T16:22:35.389Z,9.37
2019-03-22T16:25:03.711Z,8.60
2019-03-22T16:27:31.721Z,9.40
2019-03-22T16:29:59.711Z,9.13
2019-03-22T16:32:27.694Z,9.13
2019-03-22T16:34:55.662Z,9.37
2019-03-22T16:37:23.636Z,9.97
2019-03-22T16:39:51.459Z,8.10
2019-03-22T16:42:19.419Z,9.03
2019-03-22T16:44:47.319Z,8.67
2019-03-22T16:47:15.239Z,9.03
2019-03-22T16:49:43.159Z,9.60
2019-03-22T16:52:11.086Z,8.93
2019-03-22T16:54:38.993Z,9.73
2019-03-22T16:57:06.902Z,9.23
2019-03-22T16:59:34.983Z,9.50
2019-03-22T17:02:03.377Z,8.40
2019-03-22T17:04:31.488Z,9.17
2019-03-22T17:06:59.490Z,8.37
2019-03-22T17:09:27.566Z,8.63
2019-03-22T17:11:55.645Z,9.00
2019-03-22T17:14:23.660Z,9.37
2019-03-22T17:16:52.111Z,8.83
2019-03-22T17:19:20.141Z,9.80
2019-03-22T17:21:48.175Z,8.33
2019-03-22T17:24:16.365Z,8.50
2019-03-22T17:26:44.394Z,8.67
2019-03-22T17:29:12.513Z,8.13
2019-03-22T17:31:40.653Z,7.50
2019-03-22T17:34:14.174Z,6.67
2019-03-22T17:36:38.882Z,8.00
2019-03-22T17:39:08.278Z,5.30
2019-03-22T17:41:36.402Z,5.43
2019-03-22T17:44:04.672Z,6.03
2019-03-22T17:46:32.956Z,5.57
2019-03-22T17:49:01.635Z,5.90
2019-03-22T17:51:30.273Z,5.17
2019-03-22T17:53:58.594Z,5.17
2019-03-22T17:56:27.738Z,7.10
2019-03-22T17:58:55.948Z,6.03
2019-03-22T18:01:24.252Z,6.57
2019-03-22T18:03:52.453Z,5.00
2019-03-22T18:06:20.591Z,4.60
2019-03-22T18:08:48.875Z,5.87
2019-03-22T18:11:17.140Z,5.83
2019-03-22T18:13:45.539Z,5.50
2019-03-22T18:16:13.855Z,5.17
2019-03-22T18:18:42.132Z,5.83
2019-03-22T18:21:10.535Z,5.17
2019-03-22T18:23:38.865Z,6.90
2019-03-22T18:26:07.373Z,5.47
2019-03-22T18:28:35.681Z,5.20
2019-03-22T18:31:04.166Z,5.30
2019-03-22T18:33:32.514Z,5.20
2019-03-22T18:36:00.930Z,5.63
2019-03-22T18:38:29.176Z,5.40
2019-03-22T18:40:57.501Z,5.53
2019-03-22T18:43:25.984Z,6.00
2019-03-22T18:45:54.320Z,5.87
2019-03-22T18:48:23.143Z,5.50
2019-03-22T18:50:56.809Z,6.13
2019-03-22T18:53:21.835Z,6.80
2019-03-22T18:55:50.845Z,6.43
2019-03-22T18:58:19.207Z,7.10
2019-03-22T19:00:49.649Z,7.23
2019-03-22T19:03:17.968Z,7.80
2019-03-22T19:05:46.782Z,7.13
2019-03-22T19:08:17.580Z,7.47
2019-03-22T19:10:46.084Z,7.80
2019-03-22T19:13:14.479Z,7.40
2019-03-22T19:15:42.848Z,7.00
2019-03-22T19:18:11.327Z,6.27
2019-03-22T19:20:40.826Z,7.43
2019-03-22T19:23:09.121Z,6.97
2019-03-22T19:25:37.502Z,7.27
2019-03-22T19:28:05.970Z,6.80
2019-03-22T19:30:34.425Z,6.93
2019-03-22T19:33:02.808Z,6.60
2019-03-22T19:35:31.432Z,6.57
2019-03-22T19:37:59.997Z,6.83
2019-03-22T19:40:28.397Z,6.03
2019-03-22T19:42:56.787Z,6.50
2019-03-22T19:45:24.983Z,5.97
2019-03-22T19:47:53.297Z,6.30
2019-03-22T19:50:21.668Z,5.50
2019-03-22T19:52:50.041Z,6.57
2019-03-22T19:55:18.598Z,5.50
2019-03-22T19:57:48.048Z,5.20
2019-03-22T20:00:17.160Z,5.30
2019-03-22T20:02:45.725Z,4.63
2019-03-22T20:05:21.887Z,4.37
2019-03-22T20:07:50.460Z,4.30
2019-03-22T20:10:19.839Z,3.93
2019-03-22T20:12:48.377Z,4.20
2019-03-22T20:15:18.842Z,4.90
2019-03-22T20:17:49.563Z,4.70
2019-03-22T20:20:18.789Z,4.53
2019-03-22T20:22:48.766Z,5.00
2019-03-22T20:25:17.317Z,6.33
2019-03-22T20:27:45.617Z,21.17
2019-03-22T20:30:14.336Z,9.97
2019-03-22T20:32:42.704Z,7.73
2019-03-22T20:35:16.311Z,4.37
2019-03-22T20:37:41.228Z,8.10
2019-03-22T20:40:10.108Z,5.07
2019-03-22T20:42:38.640Z,14.87
2019-03-22T20:45:09.186Z,9.00
2019-03-22T20:47:37.486Z,5.40
2019-03-22T20:50:06.357Z,5.50
2019-03-22T20:52:35.064Z,5.37
2019-03-22T20:55:03.762Z,4.40
2019-03-22T20:57:32.366Z,4.70
2019-03-22T21:00:00.774Z,4.23
2019-03-22T21:02:29.186Z,4.30
2019-03-22T21:04:57.499Z,4.43
2019-03-22T21:07:25.911Z,4.27
2019-03-22T21:09:54.867Z,4.60
2019-03-22T21:12:23.382Z,4.27
2019-03-22T21:14:51.647Z,4.07
2019-03-22T21:17:20.019Z,3.57
2019-03-22T21:19:48.349Z,4.53
2019-03-22T21:22:16.697Z,3.87
2019-03-22T21:24:47.396Z,5.10
2019-03-22T21:27:16.138Z,4.20
2019-03-22T21:29:44.743Z,4.30
2019-03-22T21:32:13.219Z,4.00
2019-03-22T21:34:43.940Z,4.50
2019-03-22T21:37:11.950Z,4.03
2019-03-22T21:39:40.102Z,3.90
2019-03-22T21:42:08.257Z,3.90
2019-03-22T21:44:36.372Z,3.83
2019-03-22T21:47:04.839Z,3.90
2019-03-22T21:49:32.811Z,3.70
2019-03-22T21:52:00.888Z,3.87
2019-03-22T21:54:29.052Z,4.07
2019-03-22T21:56:57.532Z,4.13
2019-03-22T21:59:25.498Z,4.57
2019-03-22T22:01:53.572Z,4.43
2019-03-22T22:04:21.586Z,4.17
2019-03-22T22:06:49.486Z,4.30
2019-03-22T22:09:17.391Z,4.27
2019-03-22T22:11:45.307Z,4.40
2019-03-22T22:14:13.262Z,4.13
2019-03-22T22:16:41.179Z,4.67
2019-03-22T22:19:09.068Z,4.47
2019-03-22T22:21:36.992Z,4.40
2019-03-22T22:24:04.883Z,5.10
2019-03-22T22:26:32.845Z,4.90
2019-03-22T22:29:00.724Z,4.87
2019-03-22T22:31:28.589Z,4.77
2019-03-22T22:33:56.446Z,4.70
2019-03-22T22:39:34.442Z,4.50
2019-03-22T22:42:02.367Z,4.67
2019-03-22T22:44:30.261Z,4.20
2019-03-22T22:46:58.392Z,4.77
2019-03-22T22:49:26.333Z,5.00
2019-03-22T22:51:54.251Z,4.83
2019-03-22T22:54:22.141Z,4.43
2019-03-22T22:56:50.042Z,4.30
2019-03-22T22:59:17.919Z,4.30
2019-03-22T23:01:45.859Z,4.20
2019-03-22T23:04:13.731Z,4.67
2019-03-22T23:06:41.626Z,4.77
2019-03-22T23:09:09.541Z,5.17
2019-03-22T23:11:37.399Z,5.57
2019-03-22T23:14:05.326Z,6.20
2019-03-22T23:16:33.184Z,5.50
2019-03-22T23:19:01.139Z,5.67
2019-03-22T23:21:29.043Z,4.87
2019-03-22T23:23:56.949Z,4.40
2019-03-22T23:26:24.881Z,4.60
2019-03-22T23:28:52.763Z,4.23
2019-03-22T23:31:22.299Z,4.03
2019-03-22T23:33:50.312Z,4.13
2019-03-22T23:36:20.524Z,4.13
2019-03-22T23:38:48.051Z,5.10
2019-03-22T23:41:15.891Z,4.30
2019-03-22T23:43:43.739Z,4.50
2019-03-22T23:46:11.742Z,4.53
2019-03-22T23:48:39.636Z,5.10
2019-03-22T23:51:07.552Z,5.43
2019-03-22T23:53:35.461Z,4.60
2019-03-22T23:56:03.366Z,5.03
2019-03-22T23:58:31.257Z,5.00
